createdAt,value
2022-10-17T00:02:16.099Z,99.90
2022-10-17T00:04:44.756Z,99.90
2022-10-17T00:07:13.328Z,99.90
2022-10-17T00:09:44.491Z,99.90
2022-10-17T00:12:16.719Z,99.90
2022-10-17T00:14:46.554Z,99.90
2022-10-17T00:17:39.908Z,99.90
2022-10-17T00:20:09.664Z,99.90
2022-10-17T00:22:38.081Z,99.90
2022-10-17T00:25:07.569Z,99.90
2022-10-17T00:27:37.334Z,99.90
2022-10-17T00:30:12.320Z,99.90
2022-10-17T00:32:41.095Z,99.90
2022-10-17T00:35:10.321Z,99.90
2022-10-17T00:37:48.558Z,99.90
2022-10-17T00:40:17.035Z,99.90
2022-10-17T00:42:54.826Z,99.90
2022-10-17T00:45:28.706Z,99.90
2022-10-17T00:48:02.323Z,99.90
2022-10-17T00:50:32.437Z,99.90
2022-10-17T00:53:04.281Z,99.90
2022-10-17T00:55:35.059Z,99.90
2022-10-17T00:58:05.820Z,99.90
2022-10-17T01:00:37.067Z,99.90
2022-10-17T01:03:06.181Z,99.90
2022-10-17T01:05:35.256Z,99.90
2022-10-17T01:08:04.075Z,99.90
2022-10-17T01:10:36.718Z,99.90
2022-10-17T01:13:13.770Z,99.90
2022-10-17T01:15:54.186Z,99.90
2022-10-17T01:18:34.782Z,99.90
2022-10-17T01:21:41.337Z,99.90
2022-10-17T01:24:39.452Z,99.90
2022-10-17T01:27:30.976Z,99.90
2022-10-17T01:30:25.998Z,99.90
2022-10-17T01:32:58.230Z,99.90
2022-10-17T01:35:32.475Z,99.90
2022-10-17T01:38:11.055Z,99.90
2022-10-17T01:40:44.085Z,99.90
2022-10-17T01:43:18.365Z,99.90
2022-10-17T01:45:51.727Z,99.90
2022-10-17T01:48:25.999Z,99.90
2022-10-17T01:51:01.367Z,99.90
2022-10-17T01:53:34.568Z,99.90
2022-10-17T01:56:11.683Z,99.90
2022-10-17T01:58:44.787Z,99.90
2022-10-17T02:01:20.781Z,99.90
2022-10-17T02:03:52.773Z,99.90
2022-10-17T02:06:21.485Z,99.90
2022-10-17T02:08:51.784Z,99.90
2022-10-17T02:11:22.604Z,99.90
2022-10-17T02:14:21.548Z,99.90
2022-10-17T02:16:57.843Z,99.90
2022-10-17T02:19:52.577Z,99.90
2022-10-17T02:22:31.178Z,99.90
2022-10-17T02:25:09.250Z,99.90
2022-10-17T02:27:45.633Z,99.90
2022-10-17T02:30:17.869Z,99.90
2022-10-17T02:32:51.802Z,99.90
2022-10-17T02:35:23.729Z,99.90
2022-10-17T02:37:53.754Z,99.90
2022-10-17T02:40:25.766Z,99.90
2022-10-17T02:42:57.290Z,99.90
2022-10-17T02:45:28.065Z,99.90
2022-10-17T02:48:02.302Z,99.90
2022-10-17T02:50:40.648Z,99.90
2022-10-17T02:53:15.353Z,99.90
2022-10-17T02:55:51.441Z,99.90
2022-10-17T02:58:23.725Z,99.90
2022-10-17T03:00:53.904Z,99.90
2022-10-17T03:03:24.735Z,99.90
2022-10-17T03:05:55.464Z,99.90
2022-10-17T03:08:24.368Z,99.90
2022-10-17T03:10:53.332Z,99.90
2022-10-17T03:13:22.008Z,99.90
2022-10-17T03:15:50.413Z,99.90
2022-10-17T03:18:18.728Z,99.90
2022-10-17T03:20:47.077Z,99.90
2022-10-17T03:23:16.725Z,99.90
2022-10-17T03:25:45.162Z,99.90
2022-10-17T03:28:38.583Z,99.90
2022-10-17T03:31:18.051Z,99.90
2022-10-17T03:33:46.409Z,99.90
2022-10-17T03:36:16.468Z,99.90
2022-10-17T03:38:49.799Z,99.90
2022-10-17T03:41:18.483Z,99.90
2022-10-17T03:43:46.765Z,99.90
2022-10-17T03:46:15.089Z,99.90
2022-10-17T03:48:43.775Z,99.90
2022-10-17T03:51:24.490Z,99.90
2022-10-17T03:53:54.311Z,99.90
2022-10-17T03:56:24.700Z,99.90
2022-10-17T03:58:53.513Z,99.90
2022-10-17T04:01:22.421Z,99.90
2022-10-17T04:03:52.558Z,99.90
2022-10-17T04:06:21.951Z,99.90
2022-10-17T04:08:50.736Z,99.90
2022-10-17T04:11:22.119Z,99.90
2022-10-17T04:13:54.800Z,99.90
2022-10-17T04:16:24.271Z,99.90
2022-10-17T04:19:17.781Z,99.90
2022-10-17T04:21:46.536Z,99.90
2022-10-17T04:24:15.608Z,99.90
2022-10-17T04:26:45.917Z,99.90
2022-10-17T04:29:14.342Z,99.90
2022-10-17T04:31:42.730Z,99.90
2022-10-17T04:34:36.060Z,99.90
2022-10-17T04:37:04.645Z,99.90
2022-10-17T04:39:33.246Z,99.90
2022-10-17T04:42:03.263Z,99.90
2022-10-17T04:44:33.735Z,99.90
2022-10-17T04:47:02.406Z,99.90
2022-10-17T04:49:30.897Z,99.90
2022-10-17T04:51:59.579Z,99.90
2022-10-17T04:54:28.317Z,99.90
2022-10-17T04:56:57.053Z,99.90
2022-10-17T04:59:27.068Z,99.90
2022-10-17T05:01:55.544Z,99.90
2022-10-17T05:04:24.933Z,99.90
2022-10-17T05:06:53.462Z,99.90
2022-10-17T05:09:21.998Z,99.90
2022-10-17T05:11:50.347Z,99.90
2022-10-17T05:14:18.826Z,99.90
2022-10-17T05:16:48.536Z,99.90
2022-10-17T05:19:17.326Z,99.90
2022-10-17T05:21:45.508Z,99.90
2022-10-17T05:24:16.226Z,99.90
2022-10-17T05:26:44.928Z,99.90
2022-10-17T05:29:13.572Z,99.90
2022-10-17T05:31:42.243Z,99.90
2022-10-17T05:34:13.930Z,99.90
2022-10-17T05:36:43.011Z,99.90
2022-10-17T05:39:13.590Z,99.90
2022-10-17T05:41:42.036Z,99.90
2022-10-17T05:44:10.506Z,99.90
2022-10-17T05:46:42.028Z,99.90
2022-10-17T05:49:25.231Z,99.90
2022-10-17T05:52:00.848Z,99.90
2022-10-17T05:54:29.260Z,99.90
2022-10-17T05:56:58.731Z,99.90
2022-10-17T05:59:27.879Z,99.90
2022-10-17T06:01:56.791Z,99.90
2022-10-17T06:16:59.360Z,99.90
2022-10-17T06:19:28.248Z,99.90
2022-10-17T06:21:56.770Z,99.90
2022-10-17T06:24:25.438Z,99.90
2022-10-17T06:26:54.107Z,99.90
2022-10-17T06:29:22.971Z,99.90
2022-10-17T06:31:51.449Z,99.90
2022-10-17T06:34:21.856Z,99.90
2022-10-17T06:36:50.629Z,99.90
2022-10-17T06:39:19.365Z,99.90
2022-10-17T06:41:47.876Z,99.90
2022-10-17T06:44:18.116Z,99.90
2022-10-17T06:46:46.643Z,99.90
2022-10-17T06:49:15.378Z,99.90
2022-10-17T06:51:45.435Z,99.90
2022-10-17T06:54:13.940Z,99.90
2022-10-17T06:56:42.843Z,99.90
2022-10-17T06:59:12.066Z,99.90
2022-10-17T07:01:43.094Z,99.90
2022-10-17T07:04:14.891Z,99.90
2022-10-17T07:06:45.430Z,99.90
2022-10-17T07:09:14.157Z,99.90
2022-10-17T07:11:43.333Z,99.90
2022-10-17T07:14:11.917Z,99.90
2022-10-17T07:16:40.459Z,99.90
2022-10-17T07:19:09.702Z,99.90
2022-10-17T07:21:39.354Z,99.90
2022-10-17T07:24:09.534Z,99.90
2022-10-17T07:26:38.281Z,99.90
2022-10-17T07:29:07.660Z,99.90
2022-10-17T07:31:36.171Z,99.90
2022-10-17T07:34:05.377Z,99.90
2022-10-17T07:36:33.977Z,99.90
2022-10-17T07:39:02.423Z,99.90
2022-10-17T07:41:32.413Z,99.80
2022-10-17T07:44:01.135Z,98.90
2022-10-17T07:46:29.800Z,97.90
2022-10-17T07:48:58.256Z,97.60
2022-10-17T07:51:27.997Z,96.20
2022-10-17T07:53:56.473Z,96.30
2022-10-17T07:56:25.899Z,94.60
2022-10-17T08:01:26.035Z,91.20
2022-10-17T08:03:54.683Z,90.80
2022-10-17T08:06:23.304Z,88.70
2022-10-17T08:08:51.783Z,88.20
2022-10-17T08:11:21.321Z,89.40
2022-10-17T08:13:49.761Z,89.60
2022-10-17T08:16:19.751Z,87.90
2022-10-17T08:18:48.372Z,86.00
2022-10-17T08:21:16.900Z,86.10
2022-10-17T08:23:45.406Z,87.00
2022-10-17T08:26:17.337Z,86.90
2022-10-17T08:28:46.039Z,83.60
2022-10-17T08:31:19.386Z,82.30
2022-10-17T08:33:49.655Z,79.90
2022-10-17T08:36:21.244Z,80.50
2022-10-17T08:38:52.864Z,81.30
2022-10-17T08:41:50.488Z,76.80
2022-10-17T08:44:36.711Z,76.60
2022-10-17T08:47:14.241Z,75.00
2022-10-17T08:49:51.394Z,73.90
2022-10-17T08:52:31.008Z,72.50
2022-10-17T08:54:59.826Z,70.20
2022-10-17T08:57:29.066Z,66.70
2022-10-17T08:59:57.976Z,67.50
2022-10-17T09:02:46.024Z,70.30
2022-10-17T09:05:37.172Z,70.70
2022-10-17T09:08:42.518Z,68.70
2022-10-17T09:11:32.242Z,66.90
2022-10-17T09:14:21.581Z,68.30
2022-10-17T09:17:09.445Z,68.10
2022-10-17T09:19:44.597Z,65.00
2022-10-17T09:22:18.354Z,65.70
2022-10-17T09:24:54.861Z,64.90
2022-10-17T09:27:27.450Z,66.40
2022-10-17T09:30:43.650Z,65.10
2022-10-17T09:33:28.189Z,63.40
2022-10-17T09:36:07.674Z,62.30
2022-10-17T09:38:43.448Z,59.90
2022-10-17T09:44:24.281Z,60.50
2022-10-17T09:47:09.138Z,61.80
2022-10-17T09:49:40.610Z,62.50
2022-10-17T09:52:16.470Z,60.90
2022-10-17T09:54:48.887Z,59.40
2022-10-17T09:57:20.973Z,59.90
2022-10-17T09:59:59.152Z,61.20
2022-10-17T10:02:30.077Z,62.10
2022-10-17T10:05:06.608Z,61.50
2022-10-17T10:07:39.668Z,63.10
2022-10-17T10:10:27.636Z,62.90
2022-10-17T10:13:17.502Z,61.90
2022-10-17T10:15:47.956Z,60.60
2022-10-17T10:18:36.020Z,59.70
2022-10-17T10:21:09.996Z,62.20
2022-10-17T10:23:41.499Z,59.70
2022-10-17T10:26:27.059Z,60.90
2022-10-17T10:29:01.174Z,57.30
2022-10-17T10:34:28.913Z,54.90
2022-10-17T10:37:03.484Z,54.30
2022-10-17T10:39:49.796Z,53.20
2022-10-17T10:42:30.605Z,54.00
2022-10-17T10:45:29.365Z,54.70
2022-10-17T10:48:22.577Z,54.60
2022-10-17T10:50:57.207Z,55.20
2022-10-17T10:54:07.803Z,53.30
2022-10-17T10:56:43.876Z,55.10
2022-10-17T10:59:19.688Z,55.90
2022-10-17T11:01:55.778Z,55.10
2022-10-17T11:04:37.781Z,53.20
2022-10-17T11:07:12.354Z,53.40
2022-10-17T11:09:54.234Z,53.60
2022-10-17T11:12:29.744Z,53.40
2022-10-17T11:15:08.895Z,53.20
2022-10-17T11:17:46.611Z,53.80
2022-10-17T11:20:23.500Z,54.90
2022-10-17T11:23:03.116Z,55.20
2022-10-17T11:25:36.715Z,53.30
2022-10-17T11:28:15.868Z,52.90
2022-10-17T11:31:03.448Z,53.00
2022-10-17T11:33:46.926Z,52.20
2022-10-17T11:36:19.326Z,51.80
2022-10-17T11:38:56.032Z,54.10
2022-10-17T11:41:39.339Z,54.90
2022-10-17T11:44:22.069Z,53.70
2022-10-17T11:47:07.537Z,54.70
2022-10-17T11:49:43.818Z,54.10
2022-10-17T11:52:55.405Z,54.60
2022-10-17T11:55:51.920Z,55.00
2022-10-17T11:58:38.540Z,55.30
2022-10-17T12:01:20.355Z,55.00
2022-10-17T12:04:24.877Z,52.50
2022-10-17T12:07:12.776Z,52.90
2022-10-17T12:09:51.133Z,53.70
2022-10-17T12:12:28.613Z,53.00
2022-10-17T12:15:32.069Z,53.30
2022-10-17T12:18:05.108Z,53.40
2022-10-17T12:20:38.556Z,53.00
2022-10-17T12:23:27.974Z,52.10
2022-10-17T12:26:03.360Z,52.50
2022-10-17T12:28:35.133Z,52.10
2022-10-17T12:31:10.276Z,53.60
2022-10-17T12:34:19.105Z,53.90
2022-10-17T12:36:50.435Z,52.90
2022-10-17T12:39:55.660Z,52.80
2022-10-17T12:42:48.960Z,52.40
2022-10-17T12:45:51.524Z,52.60
2022-10-17T12:49:01.785Z,52.30
2022-10-17T12:52:24.932Z,51.30
2022-10-17T12:55:17.552Z,51.40
2022-10-17T12:57:56.670Z,52.50
2022-10-17T13:01:19.133Z,51.80
2022-10-17T13:03:47.784Z,51.80
2022-10-17T13:06:23.361Z,52.40
2022-10-17T13:09:03.850Z,52.60
2022-10-17T13:12:01.057Z,54.10
2022-10-17T13:14:32.919Z,52.60
2022-10-17T13:17:04.565Z,53.60
2022-10-17T13:19:43.452Z,51.90
2022-10-17T13:22:18.270Z,52.30
2022-10-17T13:24:50.098Z,52.20
2022-10-17T13:27:31.210Z,52.10
2022-10-17T13:30:02.699Z,52.20
2022-10-17T13:32:39.822Z,52.70
2022-10-17T13:35:11.542Z,52.20
2022-10-17T13:37:43.698Z,52.00
2022-10-17T13:40:50.842Z,52.70
2022-10-17T13:43:18.369Z,52.30
2022-10-17T13:45:51.711Z,52.20
2022-10-17T13:48:24.862Z,52.50
2022-10-17T13:50:59.156Z,52.30
2022-10-17T13:53:34.520Z,53.10
2022-10-17T13:56:27.330Z,52.00
2022-10-17T13:59:01.243Z,52.30
2022-10-17T14:01:31.511Z,53.20
2022-10-17T14:04:08.792Z,53.10
2022-10-17T14:06:49.290Z,53.00
2022-10-17T14:09:25.507Z,53.10
2022-10-17T14:12:05.290Z,52.80
2022-10-17T14:15:10.268Z,53.20
2022-10-17T14:17:41.085Z,53.90
2022-10-17T14:23:33.902Z,54.70
2022-10-17T14:26:13.740Z,56.40
2022-10-17T14:28:47.248Z,57.10
2022-10-17T14:31:32.128Z,57.50
2022-10-17T14:34:21.431Z,58.20
2022-10-17T14:36:54.088Z,58.50
2022-10-17T14:39:26.139Z,58.50
2022-10-17T14:41:56.709Z,58.80
2022-10-17T14:44:32.835Z,59.00
2022-10-17T14:47:30.204Z,59.50
2022-10-17T14:50:06.779Z,60.00
2022-10-17T14:52:38.888Z,60.50
2022-10-17T14:55:27.302Z,61.00
2022-10-17T14:57:56.007Z,61.70
2022-10-17T15:00:26.661Z,62.00
2022-10-17T15:02:57.125Z,62.50
2022-10-17T15:05:25.839Z,63.00
2022-10-17T15:07:55.654Z,63.30
2022-10-17T15:10:34.382Z,63.90
2022-10-17T15:13:27.187Z,64.20
2022-10-17T15:15:53.930Z,64.70
2022-10-17T15:18:22.345Z,65.10
2022-10-17T15:20:59.500Z,65.50
2022-10-17T15:23:47.623Z,66.10
2022-10-17T15:26:20.157Z,67.10
2022-10-17T15:28:50.694Z,67.50
2022-10-17T15:31:24.141Z,68.20
2022-10-17T15:33:53.599Z,68.80
2022-10-17T15:36:26.024Z,69.50
2022-10-17T15:38:57.180Z,70.10
2022-10-17T15:41:28.507Z,70.70
2022-10-17T15:43:57.485Z,71.10
2022-10-17T15:46:30.389Z,71.50
2022-10-17T15:49:03.821Z,72.40
2022-10-17T15:51:32.468Z,73.30
2022-10-17T15:54:02.122Z,74.40
2022-10-17T15:56:58.153Z,75.40
2022-10-17T15:59:33.588Z,77.10
2022-10-17T16:02:03.663Z,79.20
2022-10-17T16:04:32.143Z,81.40
2022-10-17T16:07:00.957Z,83.60
2022-10-17T16:09:30.074Z,86.50
2022-10-17T16:11:58.624Z,88.50
2022-10-17T16:14:27.248Z,90.40
2022-10-17T16:16:55.902Z,91.10
2022-10-17T16:19:27.390Z,92.40
2022-10-17T16:21:58.549Z,93.20
2022-10-17T16:24:29.590Z,94.40
2022-10-17T16:26:58.016Z,95.70
2022-10-17T16:29:26.515Z,96.50
2022-10-17T16:31:54.978Z,97.50
2022-10-17T16:34:23.557Z,98.50
2022-10-17T16:36:53.559Z,99.40
2022-10-17T16:39:22.090Z,99.90
2022-10-17T16:41:53.564Z,99.90
2022-10-17T16:44:25.058Z,99.90
2022-10-17T16:46:53.621Z,99.90
2022-10-17T16:49:22.095Z,99.90
2022-10-17T16:51:52.366Z,99.90
2022-10-17T16:54:21.134Z,99.90
2022-10-17T16:56:50.518Z,99.90
2022-10-17T16:59:19.159Z,99.90
2022-10-17T17:01:47.697Z,99.90
2022-10-17T17:04:16.420Z,99.90
2022-10-17T17:09:14.893Z,99.90
2022-10-17T17:11:43.502Z,99.90
2022-10-17T17:14:13.229Z,99.90
2022-10-17T17:16:43.512Z,99.90
2022-10-17T17:19:15.329Z,99.90
2022-10-17T17:21:47.721Z,99.90
2022-10-17T17:24:18.757Z,99.90
2022-10-17T17:27:13.684Z,99.90
2022-10-17T17:29:42.645Z,99.90
2022-10-17T17:32:11.941Z,99.90
2022-10-17T17:34:40.554Z,99.90
2022-10-17T17:37:09.462Z,99.90
2022-10-17T17:39:39.695Z,99.90
2022-10-17T17:42:08.527Z,99.90
2022-10-17T17:44:37.119Z,99.90
2022-10-17T17:47:05.835Z,99.90
2022-10-17T17:49:34.313Z,99.90
2022-10-17T17:54:40.006Z,99.90
2022-10-17T17:57:11.064Z,99.90
2022-10-17T17:59:41.477Z,99.90
2022-10-17T18:02:11.942Z,99.90
2022-10-17T18:04:40.548Z,99.90
2022-10-17T18:07:09.545Z,99.90
2022-10-17T18:09:38.066Z,99.90
2022-10-17T18:12:07.163Z,99.90
2022-10-17T18:14:37.095Z,99.90
2022-10-17T18:17:05.673Z,99.90
2022-10-17T18:19:34.206Z,99.90
2022-10-17T18:22:02.820Z,99.90
2022-10-17T18:24:31.344Z,99.90
2022-10-17T18:27:00.167Z,99.90
2022-10-17T18:29:29.667Z,99.90
2022-10-17T18:31:59.929Z,99.90
2022-10-17T18:34:29.307Z,99.90
2022-10-17T18:36:59.056Z,99.90
2022-10-17T18:39:27.518Z,99.90
2022-10-17T18:41:56.068Z,99.90
2022-10-17T18:44:25.325Z,99.90
2022-10-17T18:46:55.761Z,99.90
2022-10-17T18:49:27.591Z,99.90
2022-10-17T18:51:56.408Z,99.90
2022-10-17T18:54:25.712Z,99.90
2022-10-17T18:56:56.510Z,99.90
2022-10-17T18:59:25.331Z,99.90
2022-10-17T19:02:18.977Z,99.90
2022-10-17T19:07:22.753Z,99.90
2022-10-17T19:09:51.353Z,99.90
2022-10-17T19:12:20.112Z,99.90
2022-10-17T19:14:50.798Z,99.90
2022-10-17T19:17:19.659Z,99.90
2022-10-17T19:19:52.620Z,99.90
2022-10-17T19:22:21.231Z,99.90
2022-10-17T19:24:49.757Z,99.90
2022-10-17T19:27:20.516Z,99.90
2022-10-17T19:29:49.217Z,99.90
2022-10-17T19:32:20.622Z,99.90
2022-10-17T19:34:52.963Z,99.90
2022-10-17T19:37:21.647Z,99.90
2022-10-17T19:39:50.543Z,99.90
2022-10-17T19:42:19.220Z,99.90
2022-10-17T19:44:53.695Z,99.90
2022-10-17T19:47:22.387Z,99.90
2022-10-17T19:49:52.310Z,99.90
2022-10-17T19:52:20.900Z,99.90
2022-10-17T19:54:49.559Z,99.90
2022-10-17T19:57:18.030Z,99.90
2022-10-17T19:59:46.478Z,99.90
2022-10-17T20:02:16.461Z,99.90
2022-10-17T20:05:38.519Z,99.90
2022-10-17T20:08:07.510Z,99.90
2022-10-17T20:10:36.422Z,99.90
2022-10-17T20:13:05.412Z,99.90
2022-10-17T20:15:34.176Z,99.90
2022-10-17T20:18:02.956Z,99.90
2022-10-17T20:20:31.818Z,99.90
2022-10-17T20:23:01.774Z,99.90
2022-10-17T20:25:30.347Z,99.90
2022-10-17T20:27:59.484Z,99.90
2022-10-17T20:30:28.041Z,99.90
2022-10-17T20:32:56.614Z,99.90
2022-10-17T20:35:25.299Z,99.90
2022-10-17T20:37:53.954Z,99.90
2022-10-17T20:40:34.700Z,99.90
2022-10-17T20:43:04.938Z,99.90
2022-10-17T20:45:50.983Z,99.90
2022-10-17T20:48:20.710Z,99.90
2022-10-17T20:50:50.151Z,99.90
2022-10-17T20:53:37.391Z,99.90
2022-10-17T20:56:12.814Z,99.90
2022-10-17T20:58:41.390Z,99.90
2022-10-17T21:01:11.594Z,99.90
2022-10-17T21:03:44.063Z,99.90
2022-10-17T21:06:15.800Z,99.90
2022-10-17T21:08:45.029Z,99.90
2022-10-17T21:11:24.020Z,99.90
2022-10-17T21:13:58.217Z,99.90
2022-10-17T21:16:27.787Z,99.90
2022-10-17T21:18:57.279Z,99.90
2022-10-17T21:21:29.856Z,99.90
2022-10-17T21:24:00.870Z,99.90
2022-10-17T21:26:33.616Z,99.90
2022-10-17T21:29:05.957Z,99.90
2022-10-17T21:31:36.668Z,99.90
2022-10-17T21:34:10.088Z,99.90
2022-10-17T21:36:38.917Z,99.90
2022-10-17T21:41:44.027Z,99.90
2022-10-17T21:44:15.787Z,99.90
2022-10-17T21:46:45.945Z,99.90
2022-10-17T21:49:19.636Z,99.90
2022-10-17T21:51:49.326Z,99.90
2022-10-17T21:54:22.890Z,99.90
2022-10-17T21:56:53.621Z,99.90
2022-10-17T21:59:22.158Z,99.90
2022-10-17T22:01:50.683Z,99.90
2022-10-17T22:04:20.939Z,99.90
2022-10-17T22:06:53.359Z,99.90
2022-10-17T22:09:26.399Z,99.90
2022-10-17T22:11:58.555Z,99.90
2022-10-17T22:14:28.991Z,99.90
2022-10-17T22:16:58.029Z,99.90
2022-10-17T22:19:28.047Z,99.90
2022-10-17T22:21:56.854Z,99.90
2022-10-17T22:24:25.532Z,99.90
2022-10-17T22:26:55.397Z,99.90
2022-10-17T22:29:24.034Z,99.90
2022-10-17T22:31:52.592Z,99.90
2022-10-17T22:34:21.823Z,99.90
2022-10-17T22:36:50.568Z,99.90
2022-10-17T22:39:19.349Z,99.90
2022-10-17T22:41:47.845Z,99.90
2022-10-17T22:44:18.015Z,99.90
2022-10-17T22:46:46.789Z,99.90
2022-10-17T22:49:15.615Z,99.90
2022-10-17T22:51:44.146Z,99.90
2022-10-17T22:54:12.697Z,99.90
2022-10-17T22:56:59.765Z,99.90
2022-10-17T22:59:29.869Z,99.90
2022-10-17T23:01:58.505Z,99.90
2022-10-17T23:04:27.474Z,99.90
2022-10-17T23:06:55.960Z,99.90
2022-10-17T23:09:24.841Z,99.90
2022-10-17T23:11:53.344Z,99.90
2022-10-17T23:14:21.800Z,99.90
2022-10-17T23:16:51.946Z,99.90
2022-10-17T23:19:20.630Z,99.90
2022-10-17T23:21:49.101Z,99.90
2022-10-17T23:24:17.826Z,99.90
2022-10-17T23:26:46.419Z,99.90
2022-10-17T23:29:15.051Z,99.90
2022-10-17T23:31:43.602Z,99.90
2022-10-17T23:34:13.925Z,99.90
2022-10-17T23:36:42.485Z,99.90
2022-10-17T23:39:12.425Z,99.90
2022-10-17T23:41:41.302Z,99.90
2022-10-17T23:44:11.969Z,99.90
2022-10-17T23:46:40.553Z,99.90
2022-10-17T23:49:09.181Z,99.90
2022-10-17T23:51:39.159Z,99.90
2022-10-17T23:54:07.832Z,99.90
2022-10-17T23:56:36.436Z,99.90
2022-10-17T23:59:11.258Z,99.90
